Check out our new PWSWeather beta!
PWSweather.com
Personal Weather Stations
Station Observations
SEVANL01
SevillaES 41004

SevillaES 41004

Lat: 37.383633, Lon: -5.985787

Elevation: 19.685

Station Type: Davis Vantage Pro2

www.tiempoensevilla.es

High Low Average
Temperature 66.6°F19.2°C 57.6°F14.2°C 61.0°F16.1°C
Dew Point 62.2°F16.8°C 56.2°F13.4°C 58.9°F14.9°C
Winds 7.7 mph 12.4 kmh Calm Calm 2.0 mph SSW3.2 kmh SSW
Wind Gusts 16.0 mph25.7 kmh -- 6.0 mph9.7 kmh
Humidity 96% 81% 93%
Pressure 30.05 in1017.6 mb 29.93 in1013.5 mb -
Precipitation 0.06 in1.5 mm - -
Hour Temp Dew Point Humidity Winds Wind Gusts Pressure Precip Precip Rate Daily Precip Total
12:00 AM 61.4°F16.3°C 59.7°F15.4°C 94% Calm Calm 2.0 mph3.2 kmh 30.05 in1017.6 mb 0.00 in0.0 mm 0.00 in0.0 mm 0.00 in0.0 mm
12:20 AM 61.2°F16.2°C 59.5°F15.3°C 94% Calm Calm 2.0 mph3.2 kmh 30.05 in1017.6 mb 0.00 in0.0 mm 0.00 in0.0 mm 0.00 in0.0 mm
12:40 AM 61.0°F16.1°C 59.3°F15.2°C 94% 0.1 mph SW0.2 kmh SW 2.0 mph3.2 kmh 30.05 in1017.6 mb 0.00 in0.0 mm 0.00 in0.0 mm 0.00 in0.0 mm
01:00 AM 60.5°F15.8°C 58.8°F14.9°C 94% Calm Calm 1.0 mph1.6 kmh 30.05 in1017.6 mb 0.00 in0.0 mm 0.00 in0.0 mm 0.00 in0.0 mm
01:20 AM 60.2°F15.7°C 58.5°F14.7°C 94% Calm Calm 1.0 mph1.6 kmh 30.05 in1017.6 mb 0.00 in0.0 mm 0.00 in0.0 mm 0.00 in0.0 mm
01:40 AM 59.9°F15.5°C 58.2°F14.6°C 94% 0.7 mph W1.1 kmh W 2.0 mph3.2 kmh 30.04 in1017.3 mb 0.00 in0.0 mm 0.00 in0.0 mm 0.00 in0.0 mm
02:00 AM 59.8°F15.4°C 58.1°F14.5°C 94% 0.3 mph NNW0.5 kmh NNW 3.0 mph4.8 kmh 30.04 in1017.3 mb 0.00 in0.0 mm 0.00 in0.0 mm 0.00 in0.0 mm
02:20 AM 59.1°F15.1°C 57.4°F14.1°C 94% 1.0 mph NE1.6 kmh NE 2.0 mph3.2 kmh 30.04 in1017.3 mb 0.00 in0.0 mm 0.00 in0.0 mm 0.00 in0.0 mm
02:40 AM 59.0°F15.0°C 57.6°F14.2°C 95% Calm Calm -- 30.03 in1016.9 mb 0.00 in0.0 mm 0.00 in0.0 mm 0.00 in0.0 mm
03:00 AM 58.8°F14.9°C 57.1°F13.9°C 94% Calm Calm 1.0 mph1.6 kmh 30.02 in1016.6 mb 0.00 in0.0 mm 0.00 in0.0 mm 0.00 in0.0 mm
03:20 AM 58.9°F14.9°C 57.5°F14.2°C 95% Calm Calm -- 30.02 in1016.6 mb 0.00 in0.0 mm 0.00 in0.0 mm 0.00 in0.0 mm
03:40 AM 58.8°F14.9°C 57.4°F14.1°C 95% Calm Calm 2.0 mph3.2 kmh 30.02 in1016.6 mb 0.00 in0.0 mm 0.00 in0.0 mm 0.00 in0.0 mm
04:00 AM 58.9°F14.9°C 57.5°F14.2°C 95% Calm Calm 2.0 mph3.2 kmh 30.03 in1016.9 mb 0.00 in0.0 mm 0.00 in0.0 mm 0.00 in0.0 mm
04:20 AM 58.7°F14.8°C 57.3°F14.1°C 95% 0.4 mph SW0.6 kmh SW 3.0 mph4.8 kmh 30.02 in1016.6 mb 0.00 in0.0 mm 0.00 in0.0 mm 0.00 in0.0 mm
04:40 AM 58.6°F14.8°C 57.2°F14.0°C 95% 0.2 mph SW0.3 kmh SW 2.0 mph3.2 kmh 30.02 in1016.6 mb 0.00 in0.0 mm 0.00 in0.0 mm 0.00 in0.0 mm
05:00 AM 58.4°F14.7°C 57.0°F13.9°C 95% 1.0 mph SSW1.6 kmh SSW 4.0 mph6.4 kmh 30.01 in1016.3 mb 0.00 in0.0 mm 0.00 in0.0 mm 0.00 in0.0 mm
05:20 AM 58.1°F14.5°C 56.7°F13.7°C 95% 2.0 mph SW3.2 kmh SW 5.0 mph8.0 kmh 30.02 in1016.6 mb 0.00 in0.0 mm 0.00 in0.0 mm 0.00 in0.0 mm
05:40 AM 57.8°F14.3°C 56.4°F13.6°C 95% 1.0 mph W1.6 kmh W 4.0 mph6.4 kmh 30.02 in1016.6 mb 0.00 in0.0 mm 0.00 in0.0 mm 0.00 in0.0 mm
06:00 AM 57.7°F14.3°C 56.3°F13.5°C 95% 1.6 mph WSW2.6 kmh WSW 4.0 mph6.4 kmh 30.01 in1016.3 mb 0.00 in0.0 mm 0.00 in0.0 mm 0.00 in0.0 mm
06:20 AM 57.6°F14.2°C 56.2°F13.4°C 95% 1.3 mph SSW2.1 kmh SSW 3.0 mph4.8 kmh 30.01 in1016.3 mb 0.00 in0.0 mm 0.00 in0.0 mm 0.00 in0.0 mm
06:40 AM 57.6°F14.2°C 56.5°F13.6°C 96% 1.2 mph SW1.9 kmh SW 3.0 mph4.8 kmh 30.01 in1016.3 mb 0.00 in0.0 mm 0.00 in0.0 mm 0.00 in0.0 mm
07:00 AM 57.6°F14.2°C 56.2°F13.4°C 95% 0.9 mph SSW1.4 kmh SSW 3.0 mph4.8 kmh 30.01 in1016.3 mb 0.00 in0.0 mm 0.00 in0.0 mm 0.00 in0.0 mm
07:20 AM 57.8°F14.3°C 56.7°F13.7°C 96% 1.0 mph ESE1.6 kmh ESE 4.0 mph6.4 kmh 30.01 in1016.3 mb 0.00 in0.0 mm 0.00 in0.0 mm 0.00 in0.0 mm
07:40 AM 58.0°F14.4°C 56.9°F13.8°C 96% 1.4 mph SSE2.3 kmh SSE 4.0 mph6.4 kmh 30.01 in1016.3 mb 0.00 in0.0 mm 0.00 in0.0 mm 0.00 in0.0 mm
08:00 AM 58.1°F14.5°C 57.0°F13.9°C 96% 1.6 mph SSE2.6 kmh SSE 4.0 mph6.4 kmh 30.01 in1016.3 mb 0.00 in0.0 mm 0.00 in0.0 mm 0.00 in0.0 mm
08:20 AM 58.1°F14.5°C 57.0°F13.9°C 96% 1.0 mph SSE1.6 kmh SSE 4.0 mph6.4 kmh 30.02 in1016.6 mb 0.00 in0.0 mm 0.00 in0.0 mm 0.00 in0.0 mm
08:40 AM 58.2°F14.6°C 57.1°F13.9°C 96% 0.9 mph SSE1.4 kmh SSE 4.0 mph6.4 kmh 30.02 in1016.6 mb 0.00 in0.0 mm 0.00 in0.0 mm 0.00 in0.0 mm
09:00 AM 58.1°F14.5°C 57.0°F13.9°C 96% 1.0 mph SSE1.6 kmh SSE 4.0 mph6.4 kmh 30.03 in1016.9 mb 0.00 in0.0 mm 0.00 in0.0 mm 0.00 in0.0 mm
09:20 AM 58.2°F14.6°C 57.1°F13.9°C 96% 0.9 mph SE1.4 kmh SE 6.0 mph9.7 kmh 30.02 in1016.6 mb 0.00 in0.0 mm 0.00 in0.0 mm 0.00 in0.0 mm
09:40 AM 58.3°F14.6°C 57.2°F14.0°C 96% 1.2 mph E1.9 kmh E 4.0 mph6.4 kmh 30.02 in1016.6 mb 0.00 in0.0 mm 0.00 in0.0 mm 0.00 in0.0 mm
10:00 AM 58.7°F14.8°C 57.6°F14.2°C 96% 0.9 mph E1.4 kmh E 2.0 mph3.2 kmh 30.03 in1016.9 mb 0.00 in0.0 mm 0.00 in0.0 mm 0.00 in0.0 mm
10:20 AM 59.0°F15.0°C 57.9°F14.4°C 96% 1.1 mph SE1.8 kmh SE 5.0 mph8.0 kmh 30.02 in1016.6 mb 0.00 in0.0 mm 0.00 in0.0 mm 0.00 in0.0 mm
10:40 AM 59.2°F15.1°C 58.1°F14.5°C 96% 1.4 mph S2.3 kmh S 5.0 mph8.0 kmh 30.02 in1016.6 mb 0.00 in0.0 mm 0.00 in0.0 mm 0.00 in0.0 mm
11:00 AM 59.4°F15.2°C 58.3°F14.6°C 96% 2.0 mph S3.2 kmh S 5.0 mph8.0 kmh 30.02 in1016.6 mb 0.00 in0.0 mm 0.00 in0.0 mm 0.00 in0.0 mm
11:20 AM 59.6°F15.3°C 58.5°F14.7°C 96% 2.0 mph SW3.2 kmh SW 6.0 mph9.7 kmh 30.02 in1016.6 mb 0.00 in0.0 mm 0.00 in0.0 mm 0.00 in0.0 mm
11:40 AM 59.9°F15.5°C 58.8°F14.9°C 96% 2.0 mph SW3.2 kmh SW 5.0 mph8.0 kmh 30.02 in1016.6 mb 0.01 in0.3 mm 0.03 in0.8 mm 0.01 in0.3 mm
12:00 PM 60.2°F15.7°C 59.1°F15.1°C 96% 1.7 mph SW2.7 kmh SW 4.0 mph6.4 kmh 30.02 in1016.6 mb 0.01 in0.3 mm 0.00 in0.0 mm 0.01 in0.3 mm
12:20 PM 60.3°F15.7°C 59.2°F15.1°C 96% 2.0 mph SW3.2 kmh SW 4.0 mph6.4 kmh 30.01 in1016.3 mb 0.01 in0.3 mm 0.00 in0.0 mm 0.01 in0.3 mm
12:40 PM 60.6°F15.9°C 59.5°F15.3°C 96% 2.0 mph SW3.2 kmh SW 5.0 mph8.0 kmh 30.00 in1015.9 mb 0.00 in0.0 mm 0.00 in0.0 mm 0.01 in0.3 mm
01:00 PM 61.1°F16.2°C 60.0°F15.6°C 96% 1.1 mph SW1.8 kmh SW 7.0 mph11.3 kmh 29.99 in1015.6 mb 0.00 in0.0 mm 0.00 in0.0 mm 0.01 in0.3 mm
01:20 PM 61.4°F16.3°C 60.2°F15.7°C 96% 3.0 mph WSW4.8 kmh WSW 7.0 mph11.3 kmh 29.98 in1015.2 mb 0.00 in0.0 mm 0.00 in0.0 mm 0.01 in0.3 mm
01:40 PM 61.9°F16.6°C 60.7°F15.9°C 96% 1.4 mph SW2.3 kmh SW 4.0 mph6.4 kmh 29.98 in1015.2 mb 0.00 in0.0 mm 0.00 in0.0 mm 0.01 in0.3 mm
02:00 PM 62.4°F16.9°C 61.2°F16.2°C 96% 1.1 mph WSW1.8 kmh WSW 3.0 mph4.8 kmh 29.97 in1014.9 mb 0.00 in0.0 mm 0.00 in0.0 mm 0.01 in0.3 mm
02:20 PM 62.9°F17.2°C 61.7°F16.5°C 96% 1.3 mph WSW2.1 kmh WSW 4.0 mph6.4 kmh 29.96 in1014.6 mb 0.00 in0.0 mm 0.00 in0.0 mm 0.01 in0.3 mm
02:40 PM 63.4°F17.4°C 62.2°F16.8°C 96% 2.1 mph WSW3.4 kmh WSW 5.0 mph8.0 kmh 29.95 in1014.2 mb 0.00 in0.0 mm 0.00 in0.0 mm 0.01 in0.3 mm
03:00 PM 64.0°F17.8°C 62.2°F16.8°C 94% 2.9 mph WSW4.7 kmh WSW 6.0 mph9.7 kmh 29.94 in1013.9 mb 0.00 in0.0 mm 0.00 in0.0 mm 0.01 in0.3 mm
03:20 PM 64.3°F17.9°C 62.2°F16.8°C 93% 1.0 mph W1.6 kmh W 5.0 mph8.0 kmh 29.94 in1013.9 mb 0.00 in0.0 mm 0.00 in0.0 mm 0.01 in0.3 mm
03:40 PM 64.6°F18.1°C 62.2°F16.8°C 92% 0.9 mph WNW1.4 kmh WNW 4.0 mph6.4 kmh 29.94 in1013.9 mb 0.00 in0.0 mm 0.00 in0.0 mm 0.01 in0.3 mm
04:00 PM 64.8°F18.2°C 61.8°F16.6°C 90% 1.0 mph WNW1.6 kmh WNW 2.0 mph3.2 kmh 29.94 in1013.9 mb 0.00 in0.0 mm 0.00 in0.0 mm 0.01 in0.3 mm
04:20 PM 65.6°F18.7°C 61.3°F16.3°C 86% 3.4 mph WSW5.5 kmh WSW 11.0 mph17.7 kmh 29.94 in1013.9 mb 0.00 in0.0 mm 0.00 in0.0 mm 0.01 in0.3 mm
04:40 PM 65.9°F18.8°C 60.6°F15.9°C 83% 4.0 mph SW6.4 kmh SW 9.0 mph14.5 kmh 29.93 in1013.5 mb 0.00 in0.0 mm 0.00 in0.0 mm 0.01 in0.3 mm
05:00 PM 66.6°F19.2°C 60.6°F15.9°C 81% 3.5 mph WSW5.6 kmh WSW 9.0 mph14.5 kmh 29.93 in1013.5 mb 0.00 in0.0 mm 0.00 in0.0 mm 0.01 in0.3 mm
05:20 PM 66.1°F18.9°C 60.1°F15.6°C 81% 4.7 mph WSW7.6 kmh WSW 12.0 mph19.3 kmh 29.93 in1013.5 mb 0.00 in0.0 mm 0.00 in0.0 mm 0.01 in0.3 mm
05:40 PM 65.6°F18.7°C 60.0°F15.6°C 82% 5.4 mph SW8.7 kmh SW 11.0 mph17.7 kmh 29.94 in1013.9 mb 0.00 in0.0 mm 0.00 in0.0 mm 0.01 in0.3 mm
06:00 PM 65.1°F18.4°C 59.8°F15.4°C 83% 5.5 mph SW8.9 kmh SW 9.0 mph14.5 kmh 29.94 in1013.9 mb 0.00 in0.0 mm 0.00 in0.0 mm 0.01 in0.3 mm
06:20 PM 64.7°F18.2°C 60.1°F15.6°C 85% 4.4 mph SW7.1 kmh SW 11.0 mph17.7 kmh 29.94 in1013.9 mb 0.00 in0.0 mm 0.00 in0.0 mm 0.01 in0.3 mm
06:40 PM 64.3°F17.9°C 59.7°F15.4°C 85% 5.1 mph SW8.2 kmh SW 11.0 mph17.7 kmh 29.95 in1014.2 mb 0.00 in0.0 mm 0.00 in0.0 mm 0.01 in0.3 mm
07:00 PM 64.0°F17.8°C 59.7°F15.4°C 86% 4.0 mph SW6.4 kmh SW 10.0 mph16.1 kmh 29.95 in1014.2 mb 0.00 in0.0 mm 0.00 in0.0 mm 0.01 in0.3 mm
07:20 PM 63.6°F17.6°C 59.7°F15.4°C 87% 3.0 mph SSW4.8 kmh SSW 7.0 mph11.3 kmh 29.94 in1013.9 mb 0.00 in0.0 mm 0.00 in0.0 mm 0.01 in0.3 mm
07:40 PM 63.4°F17.4°C 59.8°F15.4°C 88% 2.5 mph SSW4.0 kmh SSW 7.0 mph11.3 kmh 29.94 in1013.9 mb 0.00 in0.0 mm 0.00 in0.0 mm 0.01 in0.3 mm
08:00 PM 63.2°F17.3°C 59.9°F15.5°C 89% 4.5 mph SW7.2 kmh SW 12.0 mph19.3 kmh 29.94 in1013.9 mb 0.00 in0.0 mm 0.00 in0.0 mm 0.01 in0.3 mm
08:20 PM 63.0°F17.2°C 60.0°F15.6°C 90% 4.3 mph SW6.9 kmh SW 9.0 mph14.5 kmh 29.95 in1014.2 mb 0.00 in0.0 mm 0.00 in0.0 mm 0.01 in0.3 mm
08:40 PM 62.6°F17.0°C 59.9°F15.5°C 91% 4.0 mph S6.4 kmh S 11.0 mph17.7 kmh 29.94 in1013.9 mb 0.00 in0.0 mm 0.00 in0.0 mm 0.01 in0.3 mm
09:00 PM 62.2°F16.8°C 59.5°F15.3°C 91% 2.3 mph SW3.7 kmh SW 9.0 mph14.5 kmh 29.94 in1013.9 mb 0.00 in0.0 mm 0.00 in0.0 mm 0.01 in0.3 mm
09:20 PM 62.2°F16.8°C 59.8°F15.4°C 92% 5.8 mph SW9.3 kmh SW 12.0 mph19.3 kmh 29.93 in1013.5 mb 0.00 in0.0 mm 0.00 in0.0 mm 0.01 in0.3 mm
09:40 PM 62.4°F16.9°C 60.0°F15.6°C 92% 6.0 mph SW9.7 kmh SW 14.0 mph22.5 kmh 29.94 in1013.9 mb 0.00 in0.0 mm 0.00 in0.0 mm 0.01 in0.3 mm
10:00 PM 62.4°F16.9°C 60.0°F15.6°C 92% 6.9 mph SW11.1 kmh SW 16.0 mph25.7 kmh 29.94 in1013.9 mb 0.00 in0.0 mm 0.00 in0.0 mm 0.01 in0.3 mm
10:20 PM 62.3°F16.8°C 59.9°F15.5°C 92% 6.8 mph SW10.9 kmh SW 16.0 mph25.7 kmh 29.95 in1014.2 mb 0.01 in0.3 mm 0.03 in0.8 mm 0.02 in0.5 mm
10:40 PM 62.0°F16.7°C 60.0°F15.6°C 93% 7.0 mph SW11.3 kmh SW 15.0 mph24.1 kmh 29.95 in1014.2 mb 0.02 in0.5 mm 0.03 in0.8 mm 0.02 in0.5 mm
11:00 PM 61.8°F16.6°C 59.8°F15.4°C 93% 6.9 mph SW11.1 kmh SW 15.0 mph24.1 kmh 29.95 in1014.2 mb 0.02 in0.5 mm 0.00 in0.0 mm 0.03 in0.8 mm
11:20 PM 61.7°F16.5°C 59.7°F15.4°C 93% 7.7 mph SW12.4 kmh SW 12.0 mph19.3 kmh 29.95 in1014.2 mb 0.02 in0.5 mm 0.00 in0.0 mm 0.03 in0.8 mm
11:40 PM 61.5°F16.4°C 59.8°F15.4°C 94% 7.3 mph SW11.7 kmh SW 15.0 mph24.1 kmh 29.95 in1014.2 mb 0.03 in0.8 mm 0.03 in0.8 mm 0.06 in1.5 mm